Time,TemperatureF,DewpointF,PressureIn,WindDirection,WindDirectionDegrees,WindSpeedMPH,WindSpeedGustMPH,Humidity,HourlyPrecipIn,Conditions,Clouds,dailyrainin,SoftwareType,DateUTC
2016-07-23 00:01:00,76.3,45.9,30.03,WSW,248,3.4,3.4,34,0.00,,,0.00,VWS V15.00,2016-07-23 04:01:00,
2016-07-23 00:06:00,76.3,45.9,30.03,SW,225,2.5,2.5,34,0.00,,,0.00,VWS V15.00,2016-07-23 04:06:00,
2016-07-23 00:11:00,76.3,45.9,30.03,South,180,4.3,4.3,34,0.00,,,0.00,VWS V15.00,2016-07-23 04:11:00,
2016-07-23 00:16:00,76.1,45.7,30.03,SW,225,3.8,3.8,34,0.00,,,0.00,VWS V15.00,2016-07-23 04:16:00,
2016-07-23 00:21:00,76.1,46.5,30.03,SW,225,2.9,2.9,35,0.00,,,0.00,VWS V15.00,2016-07-23 04:21:00,
2016-07-23 00:26:00,75.9,46.3,30.03,SW,225,1.3,1.3,35,0.00,,,0.00,VWS V15.00,2016-07-23 04:26:00,
2016-07-23 00:31:00,75.9,46.3,30.03,SW,225,4.9,4.9,35,0.00,,,0.00,VWS V15.00,2016-07-23 04:31:00,
2016-07-23 00:36:00,75.9,46.3,30.03,SW,225,3.8,3.8,35,0.00,,,0.00,VWS V15.00,2016-07-23 04:36:00,
2016-07-23 00:41:00,75.7,46.2,30.03,SSW,202,5.4,5.4,35,0.00,,,0.00,VWS V15.00,2016-07-23 04:41:00,
2016-07-23 00:46:00,75.7,46.9,30.03,West,270,4.7,4.7,36,0.00,,,0.00,VWS V15.00,2016-07-23 04:46:00,
2016-07-23 00:51:00,75.7,46.9,30.03,SSW,202,2.0,2.0,36,0.00,,,0.00,VWS V15.00,2016-07-23 04:51:00,
2016-07-23 00:56:00,75.6,46.8,30.03,South,180,2.0,2.0,36,0.00,,,0.00,VWS V15.00,2016-07-23 04:56:00,
2016-07-23 01:01:00,75.4,46.6,30.03,SW,225,0.9,0.9,36,0.00,,,0.00,VWS V15.00,2016-07-23 05:01:00,
2016-07-23 01:06:00,75.4,47.3,30.03,SW,225,5.4,5.4,37,0.00,,,0.00,VWS V15.00,2016-07-23 05:06:00,
2016-07-23 01:11:00,75.4,47.3,30.03,SW,225,3.8,3.8,37,0.00,,,0.00,VWS V15.00,2016-07-23 05:11:00,
2016-07-23 01:16:00,75.4,47.3,30.03,SW,225,2.9,2.9,37,0.00,,,0.00,VWS V15.00,2016-07-23 05:16:00,
2016-07-23 01:21:00,75.2,47.2,30.03,SSW,202,2.5,2.5,37,0.00,,,0.00,VWS V15.00,2016-07-23 05:21:00,
2016-07-23 01:26:00,75.2,47.9,30.03,WSW,248,1.1,1.1,38,0.00,,,0.00,VWS V15.00,2016-07-23 05:26:00,
2016-07-23 01:31:00,75.0,47.7,30.03,SW,225,3.8,3.8,38,0.00,,,0.00,VWS V15.00,2016-07-23 05:31:00,
2016-07-23 01:36:00,75.0,47.7,30.03,WSW,248,2.7,2.7,38,0.00,,,0.00,VWS V15.00,2016-07-23 05:36:00,
2016-07-23 01:41:00,75.0,48.4,30.03,SSW,202,1.6,1.6,39,0.00,,,0.00,VWS V15.00,2016-07-23 05:41:00,
2016-07-23 01:46:00,74.8,48.2,30.03,SW,225,2.7,2.7,39,0.00,,,0.00,VWS V15.00,2016-07-23 05:46:00,
2016-07-23 01:51:00,74.8,48.2,30.03,SW,225,2.2,2.2,39,0.00,,,0.00,VWS V15.00,2016-07-23 05:51:00,
2016-07-23 01:56:00,74.8,48.9,30.03,SSW,202,1.3,1.3,40,0.00,,,0.00,VWS V15.00,2016-07-23 05:56:00,
2016-07-23 02:01:00,74.7,48.8,30.03,SW,225,1.6,1.6,40,0.00,,,0.00,VWS V15.00,2016-07-23 06:01:00,
2016-07-23 02:06:00,74.7,49.4,30.03,SW,225,0.0,0.0,41,0.00,,,0.00,VWS V15.00,2016-07-23 06:06:00,
2016-07-23 02:11:00,74.7,49.4,30.03,SW,225,1.3,1.3,41,0.00,,,0.00,VWS V15.00,2016-07-23 06:11:00,
2016-07-23 02:16:00,74.7,49.4,30.03,SW,225,0.0,0.0,41,0.00,,,0.00,VWS V15.00,2016-07-23 06:16:00,
2016-07-23 02:21:00,74.5,49.9,30.03,SW,225,2.0,2.0,42,0.00,,,0.00,VWS V15.00,2016-07-23 06:21:00,
2016-07-23 02:26:00,74.5,49.9,30.03,South,180,0.9,0.9,42,0.00,,,0.00,VWS V15.00,2016-07-23 06:26:00,
2016-07-23 02:31:00,74.5,49.9,30.03,SW,225,0.0,0.0,42,0.00,,,0.00,VWS V15.00,2016-07-23 06:31:00,
2016-07-23 02:36:00,74.1,50.2,30.03,SW,225,0.0,0.0,43,0.00,,,0.00,VWS V15.00,2016-07-23 06:36:00,
2016-07-23 02:41:00,73.9,50.1,30.00,SW,225,0.0,0.0,43,0.00,,,0.00,VWS V15.00,2016-07-23 06:41:00,
2016-07-23 02:46:00,73.8,50.5,30.00,SW,225,0.0,0.0,44,0.00,,,0.00,VWS V15.00,2016-07-23 06:46:00,
2016-07-23 02:51:00,73.6,50.3,30.00,SSW,202,0.0,0.0,44,0.00,,,0.00,VWS V15.00,2016-07-23 06:51:00,
2016-07-23 02:56:00,73.4,50.8,30.00,SSW,202,0.0,0.0,45,0.00,,,0.00,VWS V15.00,2016-07-23 06:56:00,
2016-07-23 03:01:00,73.2,51.2,30.00,South,180,2.0,2.0,46,0.00,,,0.00,VWS V15.00,2016-07-23 07:01:00,
2016-07-23 03:06:00,73.4,52.0,30.00,SW,225,0.9,0.9,47,0.00,,,0.00,VWS V15.00,2016-07-23 07:06:00,
2016-07-23 03:11:00,73.4,52.0,30.00,South,180,0.0,0.0,47,0.00,,,0.00,VWS V15.00,2016-07-23 07:11:00,
2016-07-23 03:16:00,73.2,52.4,30.00,South,180,0.0,0.0,48,0.00,,,0.00,VWS V15.00,2016-07-23 07:16:00,
2016-07-23 03:21:00,73.2,52.9,30.00,West,270,0.0,0.0,49,0.00,,,0.00,VWS V15.00,2016-07-23 07:21:00,
2016-07-23 03:26:00,73.0,53.3,30.00,SW,225,1.3,1.3,50,0.00,,,0.00,VWS V15.00,2016-07-23 07:26:00,
2016-07-23 03:31:00,73.2,54.0,30.00,West,270,0.0,0.0,51,0.00,,,0.00,VWS V15.00,2016-07-23 07:31:00,
2016-07-23 03:37:00,73.2,54.0,30.00,SW,225,0.0,0.0,51,0.00,,,0.00,VWS V15.00,2016-07-23 07:37:00,
2016-07-23 03:42:00,73.0,54.9,30.00,WSW,248,0.0,0.0,53,0.00,,,0.00,VWS V15.00,2016-07-23 07:42:00,
2016-07-23 03:47:00,73.0,54.9,30.00,SW,225,0.0,0.0,53,0.00,,,0.00,VWS V15.00,2016-07-23 07:47:00,
2016-07-23 03:52:00,73.2,55.6,30.00,SW,225,1.3,1.3,54,0.00,,,0.00,VWS V15.00,2016-07-23 07:52:00,
2016-07-23 03:57:00,73.2,56.1,30.00,SSW,202,0.0,0.0,55,0.00,,,0.00,VWS V15.00,2016-07-23 07:57:00,
2016-07-23 04:02:00,73.0,55.9,30.00,SW,225,0.0,0.0,55,0.00,,,0.00,VWS V15.00,2016-07-23 08:02:00,
2016-07-23 04:07:00,73.2,56.6,30.00,WSW,248,1.6,1.6,56,0.00,,,0.00,VWS V15.00,2016-07-23 08:07:00,
2016-07-23 04:12:00,73.2,57.1,30.00,West,270,0.0,0.0,57,0.00,,,0.00,VWS V15.00,2016-07-23 08:12:00,
2016-07-23 04:17:00,73.0,56.9,30.00,West,270,0.0,0.0,57,0.00,,,0.00,VWS V15.00,2016-07-23 08:17:00,
2016-07-23 04:22:00,73.0,57.4,30.00,West,270,0.0,0.0,58,0.00,,,0.00,VWS V15.00,2016-07-23 08:22:00,
2016-07-23 04:27:00,72.9,57.2,30.00,West,270,0.0,0.0,58,0.00,,,0.00,VWS V15.00,2016-07-23 08:27:00,
2016-07-23 04:32:00,72.7,57.5,30.00,West,270,0.0,0.0,59,0.00,,,0.00,VWS V15.00,2016-07-23 08:32:00,
2016-07-23 04:37:00,72.5,57.4,30.00,West,270,0.0,0.0,59,0.00,,,0.00,VWS V15.00,2016-07-23 08:37:00,
2016-07-23 04:42:00,72.3,57.7,30.00,West,270,0.0,0.0,60,0.00,,,0.00,VWS V15.00,2016-07-23 08:42:00,
2016-07-23 04:47:00,72.3,58.1,30.00,West,270,0.0,0.0,61,0.00,,,0.00,VWS V15.00,2016-07-23 08:47:00,
2016-07-23 04:52:00,72.1,58.0,30.00,West,270,0.0,0.0,61,0.00,,,0.00,VWS V15.00,2016-07-23 08:52:00,
2016-07-23 04:57:00,72.0,58.2,30.00,WSW,248,0.0,0.0,62,0.00,,,0.00,VWS V15.00,2016-07-23 08:57:00,
2016-07-23 05:02:00,72.1,58.9,30.00,WSW,248,0.0,0.0,63,0.00,,,0.00,VWS V15.00,2016-07-23 09:02:00,
2016-07-23 05:07:00,72.0,58.7,30.00,SW,225,0.0,0.0,63,0.00,,,0.00,VWS V15.00,2016-07-23 09:07:00,
2016-07-23 05:12:00,72.1,59.3,30.00,SW,225,0.0,0.0,64,0.00,,,0.00,VWS V15.00,2016-07-23 09:12:00,
2016-07-23 05:17:00,72.1,59.7,30.00,SW,225,0.0,0.0,65,0.00,,,0.00,VWS V15.00,2016-07-23 09:17:00,
2016-07-23 05:22:00,72.0,59.6,30.00,SW,225,0.0,0.0,65,0.00,,,0.00,VWS V15.00,2016-07-23 09:22:00,
2016-07-23 05:27:00,71.6,59.2,30.00,SW,225,0.0,0.0,65,0.00,,,0.00,VWS V15.00,2016-07-23 09:27:00,
2016-07-23 05:32:00,71.6,59.7,30.00,SW,225,0.0,0.0,66,0.00,,,0.00,VWS V15.00,2016-07-23 09:32:00,
2016-07-23 05:37:00,71.4,59.5,30.00,SW,225,0.0,0.0,66,0.00,,,0.00,VWS V15.00,2016-07-23 09:37:00,
2016-07-23 05:42:00,71.2,59.3,30.00,SW,225,0.0,0.0,66,0.00,,,0.00,VWS V15.00,2016-07-23 09:42:00,
2016-07-23 05:47:00,71.1,59.1,30.00,SW,225,0.0,0.0,66,0.00,,,0.00,VWS V15.00,2016-07-23 09:47:00,
2016-07-23 05:52:00,71.1,59.1,30.00,SW,225,0.0,0.0,66,0.00,,,0.00,VWS V15.00,2016-07-23 09:52:00,
2016-07-23 05:57:00,70.9,59.0,30.00,SW,225,0.0,0.0,66,0.00,,,0.00,VWS V15.00,2016-07-23 09:57:00,
2016-07-23 06:02:00,70.7,58.8,30.00,SW,225,0.0,0.0,66,0.00,,,0.00,VWS V15.00,2016-07-23 10:02:00,
2016-07-23 06:07:00,70.7,59.2,30.00,SW,225,0.0,0.0,67,0.00,,,0.00,VWS V15.00,2016-07-23 10:07:00,
2016-07-23 06:12:00,70.7,59.6,30.00,SW,225,0.0,0.0,68,0.00,,,0.00,VWS V15.00,2016-07-23 10:12:00,
2016-07-23 06:17:00,70.7,59.6,30.00,SW,225,0.0,0.0,68,0.00,,,0.00,VWS V15.00,2016-07-23 10:17:00,
2016-07-23 06:22:00,70.5,59.5,30.00,SW,225,0.0,0.0,68,0.00,,,0.00,VWS V15.00,2016-07-23 10:22:00,
2016-07-23 06:27:00,70.3,59.3,30.00,SW,225,0.0,0.0,68,0.00,,,0.00,VWS V15.00,2016-07-23 10:27:00,
2016-07-23 06:32:00,70.2,59.1,30.00,SW,225,0.0,0.0,68,0.00,,,0.00,VWS V15.00,2016-07-23 10:32:00,
2016-07-23 06:37:00,70.2,59.1,30.00,SW,225,0.0,0.0,68,0.00,,,0.00,VWS V15.00,2016-07-23 10:37:00,
2016-07-23 06:42:00,70.2,59.1,30.00,SW,225,0.0,0.0,68,0.00,,,0.00,VWS V15.00,2016-07-23 10:42:00,
2016-07-23 06:47:00,70.3,59.7,30.00,SW,225,0.0,0.0,69,0.00,,,0.00,VWS V15.00,2016-07-23 10:47:00,
2016-07-23 06:52:00,70.3,59.7,30.00,SW,225,0.0,0.0,69,0.00,,,0.00,VWS V15.00,2016-07-23 10:52:00,
2016-07-23 06:57:00,70.3,59.7,30.00,SW,225,0.0,0.0,69,0.00,,,0.00,VWS V15.00,2016-07-23 10:57:00,
2016-07-23 07:02:00,70.5,59.9,30.00,SW,225,0.0,0.0,69,0.00,,,0.00,VWS V15.00,2016-07-23 11:02:00,
2016-07-23 07:07:00,70.5,60.3,30.00,SW,225,0.0,0.0,70,0.00,,,0.00,VWS V15.00,2016-07-23 11:07:00,
2016-07-23 07:12:00,70.5,60.3,30.00,SW,225,0.0,0.0,70,0.00,,,0.00,VWS V15.00,2016-07-23 11:12:00,
2016-07-23 07:17:00,70.7,60.5,30.00,SW,225,0.0,0.0,70,0.00,,,0.00,VWS V15.00,2016-07-23 11:17:00,
2016-07-23 07:22:00,71.1,60.8,30.00,SW,225,0.0,0.0,70,0.00,,,0.00,VWS V15.00,2016-07-23 11:22:00,
2016-07-23 07:27:00,71.1,60.8,30.00,SW,225,0.0,0.0,70,0.00,,,0.00,VWS V15.00,2016-07-23 11:27:00,
2016-07-23 07:32:00,71.6,61.3,30.00,SW,225,0.0,0.0,70,0.00,,,0.00,VWS V15.00,2016-07-23 11:32:00,
2016-07-23 07:37:00,71.8,61.5,30.00,SW,225,0.0,0.0,70,0.00,,,0.00,VWS V15.00,2016-07-23 11:37:00,
2016-07-23 07:42:00,72.3,61.6,30.00,SW,225,0.0,0.0,69,0.00,,,0.00,VWS V15.00,2016-07-23 11:42:00,
2016-07-23 07:47:00,72.9,62.1,30.00,SW,225,0.0,0.0,69,0.00,,,0.00,VWS V15.00,2016-07-23 11:47:00,
2016-07-23 07:52:00,73.0,62.7,30.00,SW,225,0.0,0.0,70,0.00,,,0.00,VWS V15.00,2016-07-23 11:52:00,
2016-07-23 07:57:00,73.6,62.8,30.00,SW,225,0.0,0.0,69,0.00,,,0.00,VWS V15.00,2016-07-23 11:57:00,
2016-07-23 08:02:00,74.1,63.3,30.00,SW,225,0.0,0.0,69,0.00,,,0.00,VWS V15.00,2016-07-23 12:02:00,
2016-07-23 08:07:00,74.5,63.2,30.00,SW,225,0.0,0.0,68,0.00,,,0.00,VWS V15.00,2016-07-23 12:07:00,
2016-07-23 08:12:00,75.0,63.3,30.00,SW,225,0.0,0.0,67,0.00,,,0.00,VWS V15.00,2016-07-23 12:12:00,
2016-07-23 08:17:00,75.4,62.8,30.00,SW,225,0.0,0.0,65,0.00,,,0.00,VWS V15.00,2016-07-23 12:17:00,
2016-07-23 08:22:00,75.7,62.7,30.00,SW,225,0.0,0.0,64,0.00,,,0.00,VWS V15.00,2016-07-23 12:22:00,
2016-07-23 08:27:00,76.3,61.9,30.00,SW,225,0.0,0.0,61,0.00,,,0.00,VWS V15.00,2016-07-23 12:27:00,
2016-07-23 08:32:00,76.8,60.5,30.00,NE,45,3.8,3.8,57,0.00,,,0.00,VWS V15.00,2016-07-23 12:32:00,
2016-07-23 08:37:00,77.4,57.8,30.03,NE,45,2.5,2.5,51,0.00,,,0.00,VWS V15.00,2016-07-23 12:37:00,
2016-07-23 08:42:00,77.7,56.5,30.03,ENE,68,1.3,1.3,48,0.00,,,0.00,VWS V15.00,2016-07-23 12:42:00,
2016-07-23 08:47:00,77.9,55.5,30.03,NE,45,0.0,0.0,46,0.00,,,0.00,VWS V15.00,2016-07-23 12:47:00,
2016-07-23 08:52:00,78.3,55.8,30.03,NE,45,0.0,0.0,46,0.00,,,0.00,VWS V15.00,2016-07-23 12:52:00,
2016-07-23 08:57:00,78.8,55.1,30.03,East,90,1.3,1.3,44,0.00,,,0.00,VWS V15.00,2016-07-23 12:57:00,
2016-07-23 09:02:00,79.0,54.6,30.03,East,90,1.1,1.1,43,0.00,,,0.00,VWS V15.00,2016-07-23 13:02:00,
2016-07-23 09:07:00,79.5,53.8,30.03,East,90,2.0,2.0,41,0.00,,,0.00,VWS V15.00,2016-07-23 13:07:00,
2016-07-23 09:12:00,79.9,53.4,30.03,East,90,1.3,1.3,40,0.00,,,0.00,VWS V15.00,2016-07-23 13:12:00,
2016-07-23 09:17:00,80.1,53.6,30.03,East,90,1.3,1.3,40,0.00,,,0.00,VWS V15.00,2016-07-23 13:17:00,
2016-07-23 09:22:00,80.2,53.1,30.03,East,90,0.0,0.0,39,0.00,,,0.00,VWS V15.00,2016-07-23 13:22:00,
2016-07-23 09:27:00,81.0,53.0,30.03,East,90,1.6,1.6,38,0.00,,,0.00,VWS V15.00,2016-07-23 13:27:00,
2016-07-23 09:32:00,81.3,52.6,30.03,East,90,0.0,0.0,37,0.00,,,0.00,VWS V15.00,2016-07-23 13:32:00,
2016-07-23 09:37:00,81.5,52.0,30.03,East,90,1.3,1.3,36,0.00,,,0.00,VWS V15.00,2016-07-23 13:37:00,
2016-07-23 09:42:00,82.0,51.7,30.03,East,90,1.1,1.1,35,0.00,,,0.00,VWS V15.00,2016-07-23 13:42:00,
2016-07-23 09:47:00,82.4,50.4,30.03,ENE,68,3.8,3.8,33,0.00,,,0.00,VWS V15.00,2016-07-23 13:47:00,
2016-07-23 09:52:00,82.9,50.9,30.03,ENE,68,2.5,2.5,33,0.00,,,0.00,VWS V15.00,2016-07-23 13:52:00,
2016-07-23 09:57:00,83.3,50.4,30.03,ENE,68,2.9,2.9,32,0.00,,,0.00,VWS V15.00,2016-07-23 13:57:00,
2016-07-23 10:02:00,83.5,50.5,30.03,ENE,68,2.5,2.5,32,0.00,,,0.00,VWS V15.00,2016-07-23 14:02:00,
2016-07-23 10:07:00,84.2,50.3,30.06,ENE,68,2.2,2.2,31,0.00,,,0.00,VWS V15.00,2016-07-23 14:07:00,
2016-07-23 10:12:00,85.1,50.2,30.06,NW,315,2.9,2.9,30,0.00,,,0.00,VWS V15.00,2016-07-23 14:12:00,
2016-07-23 10:17:00,84.7,49.9,30.06,WSW,248,2.9,2.9,30,0.00,,,0.00,VWS V15.00,2016-07-23 14:17:00,
2016-07-23 10:22:00,84.6,49.8,30.06,WSW,248,1.6,1.6,30,0.00,,,0.00,VWS V15.00,2016-07-23 14:22:00,
2016-07-23 10:27:00,85.8,49.9,30.06,WSW,248,2.2,2.2,29,0.00,,,0.00,VWS V15.00,2016-07-23 14:27:00,
2016-07-23 10:32:00,86.9,49.9,30.06,ENE,68,1.6,1.6,28,0.00,,,0.00,VWS V15.00,2016-07-23 14:32:00,
2016-07-23 10:37:00,87.8,50.7,30.03,East,90,2.9,2.9,28,0.00,,,0.00,VWS V15.00,2016-07-23 14:37:00,
2016-07-23 10:43:00,88.2,51.0,30.03,East,90,2.5,2.5,28,0.00,,,0.00,VWS V15.00,2016-07-23 14:43:00,